Tiempo atmosférico en la estación meteorológica de Cañamero, Cáceres (590 m.)



Fecha
DESCASC
Temp. máxima en grados centígrados (hora)
DESCASC
Temp. mínima en grados centígrados (hora)
DESCASC
Temp. media en grados centígrados
DESCASC
Racha de viento máxima en m/sg (hora)
DESCASC
Velocidad máxima media en intervalos de 10 minutos(hora)
DESCASC
Precipitaciones diarias en mm
DESCASC
Precipitaciones de 00:00 a 06:00 en mm
DESCASC
Precipitaciones de 06:00 a 12:00 en mm
DESCASC
Precipitaciones de 12:00 a 18:00 en mm
DESCASC
Precipitaciones de 18:00 a 24:00 en mm
DESCASC
14-12-2019 11.4 (14:30) 8.6 (09:10) 10 7.5 (02:10) 5.28 (03:00) 0 0 0 0 0
13-12-2019 14.4 (16:00) 9.7 (22:50) 12 11.94 (07:30) 8.33 (06:00) 0.4 0.4 0 0 0
12-12-2019 9.9 (23:59) 3.5 (07:00) 6.7 11.67 (15:10) 7.78 (15:30) 3 0 0 1 2
11-12-2019 11 (16:10) 4.2 (00:00) 7.6 9.72 (15:40) 5 (14:40) 1.4 0 1.4 0 0
10-12-2019 12.6 (14:10) 3.7 (00:00) 8.2 5.28 (07:10) 1.94 (02:10) 0 0 0 0 0
09-12-2019 10 (15:40) 8.2 (00:00) 9.1 3.61 (05:50) 1.94 (17:40) 0.4 0.2 0.2 0 0
08-12-2019 9.1 (15:30) 3.8 (00:00) 6.5 3.06 (20:10) 2.22 (20:10) 1 0 0.2 0.8 0
07-12-2019 14.4 (14:40) 5.3 (00:00) 9.8 5 (08:20) 2.78 (02:00) 0 0 0 0 0
06-12-2019 14.9 (15:20) 7.5 (00:00) 11.2 9.17 (11:40) 4.17 (11:10) 0 0 0 0 0
05-12-2019 13.2 (14:40) 7.6 (00:00) 10.4 8.61 (18:00) 4.44 (11:50) 0 0 0 0 0
04-12-2019 10.4 (14:30) 6.2 (00:00) 8.3 6.39 (03:10) 2.78 (03:10) 1.4 0.2 0.4 0.8 0
03-12-2019 13.1 (15:10) 7.4 (00:00) 10.3 8.89 (01:40) 5 (02:00) 0 0 0 0 0
02-12-2019 11.2 (14:00) 6.3 (00:00) 8.8 10.83 (14:30) 5.83 (13:30) 0.6 0.2 0.4 0 0
01-12-2019 10.5 (16:10) 6.1 (00:00) 8.3 9.17 (10:10) 6.11 (11:10) 9.8 0 4.4 5 0.4
30-11-2019 13 (14:20) 9.2 (00:00) 11.1 10.28 (20:30) 6.94 (20:30) 3.4 0 0 0.4 3
29-11-2019 14.8 (14:10) 10.8 (00:00) 12.8 7.22 (06:30) 4.72 (06:20) 0 0 0 0 0
28-11-2019 12.5 (16:30) 8.1 (00:00) 10.3 7.22 (17:40) 4.72 (17:50) 1 0 0 0.6 0.4
27-11-2019 13.2 (15:40) 9.2 (00:00) 11.2 11.39 (03:40) 7.5 (00:10) 0.4 0.4 0 0 0
26-11-2019 14 (15:30) 10.8 (00:00) 12.4 11.39 (22:50) 7.22 (22:10) 11 0 1.8 4.8 4.4
25-11-2019 15.4 (15:00) 9.2 (00:00) 12.3 9.72 (14:30) 6.11 (14:20) 9 6.6 2.4 0 0
24-11-2019 10.7 (15:10) 3.1 (00:00) 6.9 8.89 (15:10) 5.83 (15:10) 0.2 0 0 0 0.2
23-11-2019 12.2 (14:50) 6.9 (00:00) 9.5 12.78 (01:10) 7.78 (08:40) 3.4 3.2 0.2 0 0
22-11-2019 13.5 (15:50) 8.2 (00:00) 10.8 13.33 (15:20) 8.33 (14:30) 41.8 1.4 20.4 19.6 0.4
21-11-2019 10.3 (16:40) 7.3 (00:00) 8.8 5.28 (00:40) 3.89 (00:40) 9.8 1.8 7.8 0.2 0
20-11-2019 7.7 (23:59) 4.3 (00:00) 6 4.44 (13:20) 1.67 (17:00) 7 0 3 3.4 0.6
19-11-2019 9.4 (12:30) 3.6 (00:00) 6.5 4.17 (14:50) 2.78 (15:10) 0 0 0 0 0
18-11-2019 12 (16:00) 2.9 (00:00) 7.5 8.33 (00:10) 3.89 (15:50) 0 0 0 0 0
17-11-2019 8.7 (21:00) 1.7 (00:00) 5.2 6.94 (23:50) 3.61 (23:50) 17.6 0 1.2 2.2 14.2
16-11-2019 10.7 (16:00) -0.7 (-00:0) 5 8.89 (14:50) 5.83 (15:20) 0 0 0 0 0
15-11-2019 9.8 (15:30) 3 (00:00) 6.4 8.89 (00:40) 5.28 (00:40) 0 0 0 0 0

Gráficas

Temp. máximas Temp. mínimas Temp. medias Precipitaciones Rachas de viento máximas Velocidades máximas media en intervalos de 10 minutos

Datos horarios

Fecha y hora oficial Temperatura (ºC) Velocidad del viento (km/h) Dirección del viento Racha (km/h) Dirección de racha Precipitación (mm) Presión (hPa) Tendencia (hPa) Humedad (%)
2019-12-14 23:00:00 9.7 6 Sudoeste 12 Sudoeste 0 -- -- 97
2019-12-14 22:00:00 9.8 7 Sudoeste 11 Sudoeste 0 -- -- 96
2019-12-14 21:00:00 9.8 7 Oeste 14 Sudoeste 0 -- -- 95
2019-12-14 20:00:00 10 11 Sudoeste 17 Sudoeste 0 -- -- 94
2019-12-14 19:00:00 10.3 11 Oeste 19 Sudoeste 0 -- -- 93
2019-12-14 18:00:00 10.6 10 Sudoeste 22 Oeste 0 -- -- 90
2019-12-14 17:00:00 10.9 13 Oeste 24 Oeste 0 -- -- 88
2019-12-14 16:00:00 10.9 14 Sudoeste 24 Sudoeste 0 -- -- 89
2019-12-14 15:00:00 11.1 13 Sudoeste 22 Sudoeste 0 -- -- 88
2019-12-14 14:00:00 10.9 10 Oeste 18 Oeste 0 -- -- 90
2019-12-14 13:00:00 10.3 11 Oeste 21 Sudoeste 0 -- -- 94
2019-12-14 12:00:00 9.9 13 Oeste 21 Sudoeste 0 -- -- 98
2019-12-14 11:00:00 9.2 14 Sudoeste 19 Sudoeste 0 -- -- 99
2019-12-14 10:00:00 8.9 10 Oeste 19 Sudoeste 0 -- -- 99
2019-12-14 09:00:00 8.7 12 Oeste 21 Oeste 0 -- -- 99
2019-12-14 08:00:00 8.8 15 Oeste 24 Oeste 0 -- -- 99
2019-12-14 07:00:00 8.8 14 Oeste 22 Oeste 0 -- -- 100
2019-12-14 06:00:00 9.1 14 Oeste 23 Oeste 0 -- -- 99
2019-12-14 05:00:00 9.2 17 Oeste 23 Oeste 0 -- -- 99
2019-12-14 04:00:00 9.4 15 Oeste 25 Oeste 0 -- -- 99
2019-12-14 03:00:00 9.6 19 Oeste 27 Oeste 0 -- -- 98
2019-12-14 02:00:00 9.7 18 Oeste 25 Oeste 0 -- -- 98
2019-12-14 01:00:00 9.8 13 Sudoeste 23 Oeste 0 -- -- 98
2019-12-14 00:00:00 9.7 18 Oeste 27 Oeste 0 -- -- 97
2019-12-13 23:00:00 9.7 18 Oeste 31 Sudoeste 0 -- -- 97
2019-12-13 22:00:00 10.3 15 Sudoeste 24 Sudoeste 0 -- -- 95
2019-12-13 21:00:00 10.6 14 Sudoeste 27 Sudoeste 0 -- -- 93
2019-12-13 20:00:00 11.2 14 Sudoeste 22 Oeste 0 -- -- 91
2019-12-13 19:00:00 11.6 9 Oeste 32 Oeste 0 -- -- 86
2019-12-13 18:00:00 12.4 16 Oeste 36 Oeste 0 -- -- 82
2019-12-13 17:00:00 13.4 21 Oeste 36 Oeste 0 -- -- 78
2019-12-13 16:00:00 14.4 21 Oeste 40 Oeste 0 -- -- 73
2019-12-13 15:00:00 14.1 25 Oeste 40 Oeste 0 -- -- 76
2019-12-13 14:00:00 13.7 21 Oeste 29 Sudoeste 0 -- -- 79
2019-12-13 13:00:00 13.3 18 Oeste 38 Oeste 0 -- -- 78
2019-12-13 12:00:00 12.4 19 Oeste 33 Oeste 0 -- -- 87
2019-12-13 11:00:00 11.5 20 Oeste 36 Noroeste 0 -- -- 90
2019-12-13 10:00:00 10.5 21 Oeste 34 Oeste 0 -- -- 94
2019-12-13 09:00:00 10.1 21 Oeste 34 Oeste 0 -- -- 93
2019-12-13 08:00:00 10.2 22 Oeste 43 Oeste 0 -- -- 91
2019-12-13 07:00:00 10.4 27 Oeste 41 Oeste 0 -- -- 93
2019-12-13 06:00:00 10.6 30 Oeste 42 Oeste 0 -- -- 99
2019-12-13 05:00:00 10.5 25 Oeste 40 Oeste 0 -- -- 100
2019-12-13 04:00:00 10.6 22 Oeste 34 Oeste 0 -- -- 100
2019-12-13 03:00:00 10.6 19 Sudoeste 30 Oeste 0.2 -- -- 100
2019-12-13 02:00:00 10.4 19 Sudoeste 33 Oeste 0 -- -- 100
2019-12-13 01:00:00 10.2 21 Oeste 33 Sudoeste 0.2 -- -- 100
2019-12-13 00:00:00 9.9 22 Oeste 34 Oeste 0.4 -- -- 100
2019-12-12 23:00:00 9.5 22 Oeste 35 Sudoeste 0 -- -- 100
2019-12-12 22:00:00 9.3 21 Oeste 35 Sudoeste 0 -- -- 100
2019-12-12 21:00:00 9 22 Sudoeste 36 Sudoeste 0.2 -- -- 100
2019-12-12 20:00:00 8.8 23 Oeste 41 Sudoeste 0.8 -- -- 100
2019-12-12 19:00:00 8.6 27 Oeste 42 Sudoeste 0.6 -- -- 99
2019-12-12 18:00:00 8.4 25 Oeste 38 Sudoeste 0.6 -- -- 99
2019-12-12 17:00:00 8.3 27 Oeste 40 Oeste 0.2 -- -- 98
2019-12-12 16:00:00 8.3 24 Oeste 42 Oeste 0.2 -- -- 96
2019-12-12 15:00:00 8.4 23 Oeste 35 Sudoeste 0 -- -- 94
2019-12-12 14:00:00 7.8 19 Sudoeste 27 Sudoeste 0 -- -- 97
2019-12-12 13:00:00 7.2 16 Sudoeste 24 Sudoeste 0 -- -- 99
2019-12-12 12:00:00 6.1 13 Sudoeste 25 Sudoeste 0 -- -- 98
2019-12-12 11:00:00 5.1 9 Sudoeste 17 Sudoeste 0 -- -- 99
2019-12-12 10:00:00 4.1 6 Oeste 14 Oeste 0 -- -- 98
2019-12-12 09:00:00 3.8 12 Sudoeste 21 Sudoeste 0 -- -- 96
2019-12-12 08:00:00 3.7 12 Oeste 16 Oeste 0 -- -- 96
2019-12-12 07:00:00 3.5 8 Oeste 12 Oeste 0 -- -- 95
2019-12-12 06:00:00 4.3 6 Oeste 10 Noroeste 0 -- -- 89
2019-12-12 05:00:00 5 5 Oeste 12 Noroeste 0 -- -- 84
2019-12-12 04:00:00 5.4 7 Noroeste 22 Noroeste 0 -- -- 81
2019-12-12 03:00:00 5.7 8 Noroeste 20 Oeste 0 -- -- 77
2019-12-12 02:00:00 6 11 Noroeste 21 Noroeste 0 -- -- 72
2019-12-12 01:00:00 4.7 6 Noroeste 15 Norte 0 -- -- 76
2019-12-12 00:00:00 5.7 5 Norte 19 Norte 0 -- -- 70
2019-12-11 23:00:00 6.3 10 Norte 22 Norte 0 -- -- 68
2019-12-11 22:00:00 6.6 12 Norte 19 Noroeste 0 -- -- 65
2019-12-11 21:00:00 7.2 12 Norte 19 Norte 0 -- -- 62
2019-12-11 20:00:00 8 9 Noroeste 20 Noroeste 0 -- -- 58
2019-12-11 19:00:00 8.2 3 Oeste 22 Oeste 0 -- -- 61
2019-12-11 18:00:00 9.4 7 Noroeste 24 Noroeste 0 -- -- 58
2019-12-11 17:00:00 10.7 11 Oeste 33 Noroeste 0 -- -- 59
2019-12-11 16:00:00 10.9 10 Oeste 35 Noroeste 0 -- -- 65
2019-12-11 15:00:00 9.9 14 Noroeste 33 Noroeste 0 -- -- 80
2019-12-11 14:00:00 7.6 13 Oeste 22 Oeste 0 -- -- 100
2019-12-11 13:00:00 6.2 8 Oeste 12 Oeste 0 -- -- 100
2019-12-11 12:00:00 5.9 9 Oeste 14 Sudoeste 0.4 -- -- 100
2019-12-11 11:00:00 5.5 5 Oeste 9 Sudoeste 1 -- -- 100
2019-12-11 10:00:00 5.1 0 Calma 6 Oeste 0 -- -- 100
2019-12-11 09:00:00 4.7 4 Oeste 10 Sudoeste 0 -- -- 100
2019-12-11 08:00:00 4.6 5 Oeste 9 Oeste 0 -- -- 100
2019-12-11 07:00:00 4.7 4 Oeste 9 Oeste 0 -- -- 100
2019-12-11 06:00:00 4.8 4 Sudoeste 9 Oeste 0 -- -- 100
2019-12-11 05:00:00 5.5 7 Oeste 12 Oeste 0 -- -- 99
2019-12-11 04:00:00 5.4 4 Oeste 8 Oeste 0 -- -- 100
2019-12-11 03:00:00 5.2 4 Oeste 6 Noroeste 0 -- -- 99
2019-12-11 02:00:00 5.3 2 Noroeste 5 Noroeste 0 -- -- 98
2019-12-11 01:00:00 4.8 2 Sudoeste 4 Oeste 0 -- -- 98
2019-12-11 00:00:00 4.6 0 Calma 4 Sudoeste 0 -- -- 96
2019-12-10 23:00:00 6 2 Sudoeste 5 Sudoeste 0 -- -- 97
2019-12-10 22:00:00 5.5 4 Noroeste 5 Noroeste 0 -- -- 96
2019-12-10 21:00:00 6.1 0 Calma 4 Oeste 0 -- -- 95
2019-12-10 20:00:00 6.5 3 Oeste 4 Noroeste 0 -- -- 93
2019-12-10 19:00:00 7.9 0 Calma 3 Norte 0 -- -- 88
2019-12-10 18:00:00 9.2 3 Norte 5 Noroeste 0 -- -- 85
2019-12-10 17:00:00 10.3 5 Noroeste 9 Noroeste 0 -- -- 80
2019-12-10 16:00:00 11.3 2 Sudoeste 10 Oeste 0 -- -- 71
2019-12-10 15:00:00 11.5 7 Oeste 10 Oeste 0 -- -- 79
2019-12-10 14:00:00 12.5 3 Sur 7 Sur 0 -- -- 69
2019-12-10 13:00:00 9.5 3 Oeste 10 Norte 0 -- -- 86
2019-12-10 12:00:00 8.3 4 Norte 12 Sudeste 0 -- -- 86
2019-12-10 11:00:00 6.6 4 Nordeste 10 Sudeste 0 -- -- 100
2019-12-10 10:00:00 4.3 4 Este 12 Sudeste 0 -- -- 100
2019-12-10 09:00:00 3.7 5 Este 10 Este 0 -- -- 99
2019-12-10 08:00:00 4.4 5 Nordeste 19 Este 0 -- -- 99
2019-12-10 07:00:00 5.1 5 Este 17 Este 0 -- -- 99
2019-12-10 06:00:00 5.6 3 Este 10 Nordeste 0 -- -- 99
2019-12-10 05:00:00 6 3 Este 14 Nordeste 0 -- -- 98
2019-12-10 04:00:00 6.6 6 Nordeste 13 Este 0 -- -- 98
2019-12-10 03:00:00 7.4 5 Nordeste 18 Nordeste 0 -- -- 96
2019-12-10 02:00:00 8.1 5 Este 15 Este 0 -- -- 96
2019-12-10 01:00:00 8.5 4 Este 13 Este 0 -- -- 97
2019-12-10 00:00:00 8.5 2 Nordeste 6 Nordeste 0 -- -- 97
2019-12-09 23:00:00 8.9 0 Calma 7 Este 0 -- -- 97
2019-12-09 22:00:00 9 2 Nordeste 8 Este 0 -- -- 97
2019-12-09 21:00:00 9.1 3 Nordeste 5 Nordeste 0 -- -- 97
2019-12-09 20:00:00 9.5 0 Calma 5 Noroeste 0 -- -- 97
2019-12-09 19:00:00 9.5 2 Oeste 6 Oeste 0 -- -- 98
2019-12-09 18:00:00 9.7 4 Oeste 11 Oeste 0 -- -- 98
2019-12-09 17:00:00 9.8 6 Sudoeste 9 Oeste 0 -- -- 98
2019-12-09 16:00:00 10 0 Calma 6 Noroeste 0 -- -- 99
2019-12-09 15:00:00 9.9 0 Calma 9 Oeste 0 -- -- 99
2019-12-09 14:00:00 9.9 2 Sudeste 7 Sudeste 0 -- -- 100
2019-12-09 13:00:00 9.8 3 Sudeste 7 Sudeste 0 -- -- 100
2019-12-09 12:00:00 9.3 3 Este 9 Este 0 -- -- 100
2019-12-09 11:00:00 9.1 4 Nordeste 8 Nordeste 0 -- -- 100
2019-12-09 10:00:00 8.7 4 Nordeste 8 Nordeste 0.2 -- -- 100
2019-12-09 09:00:00 8.5 4 Nordeste 10 Nordeste 0 -- -- 100
2019-12-09 08:00:00 8.5 3 Este 5 Este 0 -- -- 100
2019-12-09 07:00:00 8.4 0 Calma 8 Este 0 -- -- 100
2019-12-09 06:00:00 8.2 3 Este 13 Este 0 -- -- 100
2019-12-09 05:00:00 8.4 3 Este 7 Nordeste 0 -- -- 100
2019-12-09 04:00:00 9.1 0 Calma 8 Sudoeste 0 -- -- 100
2019-12-09 03:00:00 8.9 0 Calma 4 Sur 0.2 -- -- 100
2019-12-09 02:00:00 8.8 0 Calma 5 Sudoeste 0 -- -- 100
2019-12-09 01:00:00 8.7 3 Sur 6 Sudoeste 0 -- -- 100
2019-12-09 00:00:00 8.6 4 Sudoeste 8 Sudoeste 0 -- -- 100
2019-12-08 23:00:00 8.4 5 Sudoeste 10 Sudoeste 0 -- -- 100
2019-12-08 22:00:00 8.2 5 Sudoeste 8 Sudoeste 0 -- -- 99
2019-12-08 21:00:00 8 4 Oeste 11 Oeste 0 -- -- 99
2019-12-08 20:00:00 8 4 Oeste 10 Oeste 0 -- -- 99
2019-12-08 19:00:00 8.1 5 Oeste 8 Oeste 0 -- -- 98
2019-12-08 18:00:00 8.4 3 Oeste 5 Oeste 0.6 -- -- 96
2019-12-08 17:00:00 8.7 3 Oeste 9 Oeste 0.2 -- -- 95
2019-12-08 16:00:00 8.9 4 Oeste 10 Oeste 0 -- -- 92
2019-12-08 15:00:00 9 6 Sudoeste 9 Sudoeste 0 -- -- 93
2019-12-08 14:00:00 8.6 0 Calma 6 Noroeste 0 -- -- 99
2019-12-08 13:00:00 7.8 2 Oeste 8 Oeste 0 -- -- 99
2019-12-08 12:00:00 7.5 3 Noroeste 5 Noroeste 0 -- -- 99
2019-12-08 11:00:00 6.9 0 Calma 4 Noroeste 0 -- -- 99
2019-12-08 10:00:00 5.7 0 Calma 4 Este 0 -- -- 100
2019-12-08 09:00:00 4.2 2 Sudeste 4 Este 0.2 -- -- 100
2019-12-08 08:00:00 4.3 0 Calma 3 Nordeste 0 -- -- 99
2019-12-08 07:00:00 4.9 0 Calma 4 Norte 0 -- -- 98
2019-12-08 06:00:00 4.6 3 Noroeste 4 Norte 0 -- -- 100
2019-12-08 05:00:00 4.6 0 Calma 3 Nordeste 0 -- -- 98
2019-12-08 04:00:00 5.6 2 Nordeste 8 Nordeste 0 -- -- 98
2019-12-08 03:00:00 6.1 2 Este 4 Este 0 -- -- 98
2019-12-08 02:00:00 6.5 3 Sudeste 4 Sur 0 -- -- 98
2019-12-08 01:00:00 5.5 0 Calma 2 Oeste 0 -- -- 96
2019-12-08 00:00:00 6.2 0 Calma 5 Noroeste 0 -- -- 97
2019-12-07 23:00:00 6.2 0 Calma 4 Norte 0 -- -- 96
2019-12-07 22:00:00 6.5 0 Calma 2 Nordeste 0 -- -- 95
2019-12-07 21:00:00 7.1 0 Calma 3 Sur 0 -- -- 95
2019-12-07 20:00:00 7.6 0 Calma 4 Sudoeste 0 -- -- 93
2019-12-07 19:00:00 9.1 0 Calma 5 Sur 0 -- -- 84
2019-12-07 18:00:00 12.1 0 Calma 6 Sudoeste 0 -- -- 75
2019-12-07 17:00:00 13.6 5 Sudoeste 14 Sudoeste 0 -- -- 68
2019-12-07 16:00:00 13.8 8 Oeste 14 Oeste 0 -- -- 70
2019-12-07 15:00:00 14 6 Oeste 12 Sur 0 -- -- 67
2019-12-07 14:00:00 13.7 2 Nordeste 10 Noroeste 0 -- -- 70
2019-12-07 13:00:00 12.5 3 Noroeste 10 Este 0 -- -- 71
2019-12-07 12:00:00 11 4 Nordeste 15 Este 0 -- -- 78
2019-12-07 11:00:00 9 6 Este 17 Este 0 -- -- 85
2019-12-07 10:00:00 7.1 6 Este 15 Este 0 -- -- 91
2019-12-07 09:00:00 6.1 5 Este 18 Este 0 -- -- 92
2019-12-07 08:00:00 6.2 5 Este 14 Este 0 -- -- 92
2019-12-07 07:00:00 5.4 4 Este 10 Este 0 -- -- 93
2019-12-07 06:00:00 6.1 4 Este 12 Este 0 -- -- 89
2019-12-07 05:00:00 6.5 5 Este 14 Este 0 -- -- 88
2019-12-07 04:00:00 7 6 Este 12 Este 0 -- -- 86
2019-12-07 03:00:00 7.6 3 Este 16 Nordeste 0 -- -- 83
2019-12-07 02:00:00 8.4 10 Nordeste 16 Nordeste 0 -- -- 80
2019-12-07 01:00:00 7.6 3 Este 12 Nordeste 0 -- -- 84
2019-12-07 00:00:00 7.5 4 Nordeste 13 Nordeste 0 -- -- 85
2019-12-06 23:00:00 8 4 Este 15 Este 0 -- -- 84
2019-12-06 22:00:00 8.6 4 Este 13 Sudeste 0 -- -- 81
2019-12-06 21:00:00 9.8 4 Este 14 Nordeste 0 -- -- 74
2019-12-06 20:00:00 10.1 6 Este 13 Nordeste 0 -- -- 73
2019-12-06 19:00:00 10.6 5 Nordeste 13 Este 0 -- -- 72
2019-12-06 18:00:00 12.1 7 Nordeste 14 Este 0 -- -- 67
2019-12-06 17:00:00 14 6 Nordeste 18 Este 0 -- -- 61
2019-12-06 16:00:00 14.5 7 Nordeste 23 Nordeste 0 -- -- 59
2019-12-06 15:00:00 14.6 8 Este 23 Este 0 -- -- 60
2019-12-06 14:00:00 13.8 10 Este 23 Este 0 -- -- 63
2019-12-06 13:00:00 13 9 Este 27 Este 0 -- -- 65
2019-12-06 12:00:00 12.1 12 Este 33 Sudeste 0 -- -- 67
2019-12-06 11:00:00 11 14 Este 30 Este 0 -- -- 70
2019-12-06 10:00:00 9.5 12 Este 26 Este 0 -- -- 77
2019-12-06 09:00:00 8.1 7 Este 19 Este 0 -- -- 83
2019-12-06 08:00:00 7.8 7 Este 21 Sudeste 0 -- -- 84
2019-12-06 07:00:00 8.2 9 Este 23 Este 0 -- -- 84
2019-12-06 06:00:00 8.4 10 Este 22 Nordeste 0 -- -- 83
2019-12-06 05:00:00 8.4 8 Este 22 Nordeste 0 -- -- 84
2019-12-06 04:00:00 8.6 10 Este 24 Este 0 -- -- 85
2019-12-06 03:00:00 8.6 11 Este 23 Nordeste 0 -- -- 86
2019-12-06 02:00:00 8.6 5 Este 14 Este 0 -- -- 83
2019-12-06 01:00:00 9.1 5 Este 14 Nordeste 0 -- -- 80
2019-12-06 00:00:00 9.7 5 Este 17 Este 0 -- -- 78
2019-12-05 23:00:00 10.7 9 Este 25 Nordeste 0 -- -- 74
2019-12-05 22:00:00 10.2 5 Este 13 Este 0 -- -- 76
2019-12-05 21:00:00 9.8 5 Este 17 Este 0 -- -- 76
2019-12-05 20:00:00 10.1 6 Este 15 Nordeste 0 -- -- 76
2019-12-05 19:00:00 10.3 5 Este 27 Nordeste 0 -- -- 75
2019-12-05 18:00:00 11.2 12 Nordeste 31 Este 0 -- -- 71
2019-12-05 17:00:00 11.7 10 Nordeste 26 Nordeste 0 -- -- 68
2019-12-05 16:00:00 11.9 12 Nordeste 26 Norte 0 -- -- 67
2019-12-05 15:00:00 12.4 15 Nordeste 27 Nordeste 0 -- -- 65
2019-12-05 14:00:00 12.3 10 Nordeste 22 Nordeste 0 -- -- 66
2019-12-05 13:00:00 12.5 12 Nordeste 27 Este 0 -- -- 64
2019-12-05 12:00:00 11.8 13 Nordeste 27 Nordeste 0 -- -- 66
2019-12-05 11:00:00 11 13 Nordeste 24 Nordeste 0 -- -- 68
2019-12-05 10:00:00 9.3 7 Este 22 Norte 0 -- -- 75
2019-12-05 09:00:00 8.6 9 Nordeste 26 Nordeste 0 -- -- 76
2019-12-05 08:00:00 8.7 9 Nordeste 24 Nordeste 0 -- -- 76
2019-12-05 07:00:00 8.9 8 Nordeste 21 Nordeste 0 -- -- 75
2019-12-05 06:00:00 9.1 10 Nordeste 19 Este 0 -- -- 74
2019-12-05 05:00:00 8.5 6 Nordeste 13 Nordeste 0 -- -- 77
2019-12-05 04:00:00 8.6 4 Este 9 Este 0 -- -- 80
2019-12-05 03:00:00 8 5 Nordeste 8 Nordeste 0 -- -- 84
2019-12-05 02:00:00 7.7 4 Este 11 Nordeste 0 -- -- 85
2019-12-05 01:00:00 8.2 6 Nordeste 11 Nordeste 0 -- -- 83
2019-12-05 00:00:00 8.8 6 Nordeste 14 Nordeste 0 -- -- 81
2019-12-04 23:00:00 9.2 5 Nordeste 13 Este 0 -- -- 82
2019-12-04 22:00:00 9.4 4 Este 11 Este 0 -- -- 83
2019-12-04 21:00:00 9.3 5 Nordeste 15 Nordeste 0 -- -- 86
2019-12-04 20:00:00 9.1 5 Nordeste 12 Nordeste 0 -- -- 89
2019-12-04 19:00:00 8.8 3 Nordeste 6 Este 0 -- -- 91
2019-12-04 18:00:00 9.1 0 Calma 8 Norte 0.2 -- -- 91
2019-12-04 17:00:00 9.5 0 Calma 4 Nordeste 0.2 -- -- 91
2019-12-04 16:00:00 9.7 3 Norte 8 Noroeste 0.4 -- -- 87
2019-12-04 15:00:00 10.1 5 Noroeste 10 Oeste 0 -- -- 83
2019-12-04 14:00:00 10.2 8 Oeste 12 Oeste 0 -- -- 84
2019-12-04 13:00:00 9.8 8 Oeste 13 Oeste 0 -- -- 84
2019-12-04 12:00:00 9.8 0 Calma 7 Oeste 0 -- -- 84
2019-12-04 11:00:00 7.9 2 Oeste 8 Oeste 0 -- -- 90
2019-12-04 10:00:00 6.8 0 Calma 10 Oeste 0 -- -- 95
2019-12-04 09:00:00 6.9 3 Nordeste 8 Este 0 -- -- 95
2019-12-04 08:00:00 6.7 6 Este 13 Nordeste 0.2 -- -- 95
2019-12-04 07:00:00 7.1 3 Nordeste 9 Nordeste 0.2 -- -- 92
2019-12-04 06:00:00 6.9 4 Nordeste 14 Nordeste 0 -- -- 91
2019-12-04 05:00:00 6.7 8 Nordeste 17 Nordeste 0 -- -- 92
2019-12-04 04:00:00 6.2 6 Nordeste 23 Nordeste 0.2 -- -- 95
2019-12-04 03:00:00 6.6 8 Este 19 Sudeste 0 -- -- 92
2019-12-04 02:00:00 7.5 5 Este 18 Este 0 -- -- 84
2019-12-04 01:00:00 8 3 Este 21 Este 0 -- -- 81
2019-12-04 00:00:00 8.1 6 Este 14 Este 0 -- -- 83
2019-12-03 23:00:00 8.5 5 Este 18 Nordeste 0 -- -- 82
2019-12-03 22:00:00 8.8 5 Este 19 Nordeste 0 -- -- 81
2019-12-03 21:00:00 9.2 8 Nordeste 20 Nordeste 0 -- -- 78
2019-12-03 20:00:00 9.3 9 Este 23 Este 0 -- -- 77
2019-12-03 19:00:00 9.6 11 Nordeste 22 Este 0 -- -- 76
2019-12-03 18:00:00 9.9 7 Este 22 Nordeste 0 -- -- 74
2019-12-03 17:00:00 10.6 8 Este 23 Nordeste 0 -- -- 70
2019-12-03 16:00:00 11.7 12 Nordeste 22 Nordeste 0 -- -- 67
2019-12-03 15:00:00 13 11 Este 26 Este 0 -- -- 64
2019-12-03 14:00:00 12.6 8 Este 26 Este 0 -- -- 65
2019-12-03 13:00:00 11.9 9 Nordeste 31 Sur 0 -- -- 68
2019-12-03 12:00:00 10.9 9 Este 30 Nordeste 0 -- -- 71
2019-12-03 11:00:00 10.1 15 Este 31 Nordeste 0 -- -- 69
2019-12-03 10:00:00 9 15 Nordeste 31 Este 0 -- -- 72
2019-12-03 09:00:00 7.7 11 Nordeste 24 Nordeste 0 -- -- 76
2019-12-03 08:00:00 7.5 14 Nordeste 24 Nordeste 0 -- -- 76
2019-12-03 07:00:00 7.6 10 Nordeste 21 Este 0 -- -- 75
2019-12-03 06:00:00 7.8 9 Nordeste 23 Nordeste 0 -- -- 75
2019-12-03 05:00:00 7.8 10 Nordeste 26 Nordeste 0 -- -- 75
2019-12-03 04:00:00 7.9 10 Este 25 Este 0 -- -- 75
2019-12-03 03:00:00 8 14 Nordeste 29 Nordeste 0 -- -- 74
2019-12-03 02:00:00 8.7 18 Nordeste 32 Nordeste 0 -- -- 71
2019-12-03 01:00:00 8.4 14 Este 28 Este 0 -- -- 73
2019-12-03 00:00:00 8.7 14 Este 26 Este 0 -- -- 72
2019-12-02 23:00:00 8.9 11 Este 26 Nordeste 0 -- -- 72
2019-12-02 22:00:00 9.6 12 Nordeste 30 Este 0 -- -- 69
2019-12-02 21:00:00 9.8 14 Nordeste 28 Nordeste 0 -- -- 69
2019-12-02 20:00:00 10.1 12 Nordeste 28 Nordeste 0 -- -- 69
2019-12-02 19:00:00 9.9 11 Nordeste 26 Nordeste 0 -- -- 71
2019-12-02 18:00:00 9.9 9 Nordeste 29 Nordeste 0 -- -- 74
2019-12-02 17:00:00 9.9 13 Nordeste 33 Este 0 -- -- 74
2019-12-02 16:00:00 10.3 15 Nordeste 36 Este 0 -- -- 72
2019-12-02 15:00:00 11.1 18 Nordeste 39 Este 0 -- -- 69
2019-12-02 14:00:00 11.2 15 Nordeste 37 Nordeste 0 -- -- 70
2019-12-02 13:00:00 9.7 16 Nordeste 35 Nordeste 0 -- -- 72
2019-12-02 12:00:00 8.9 12 Nordeste 28 Nordeste 0 -- -- 79
2019-12-02 11:00:00 9.3 15 Nordeste 32 Nordeste 0 -- -- 79
2019-12-02 10:00:00 8.1 12 Nordeste 34 Este 0.2 -- -- 83
2019-12-02 09:00:00 7.4 10 Nordeste 27 Este 0 -- -- 87
2019-12-02 08:00:00 7.4 14 Nordeste 30 Este 0 -- -- 86
2019-12-02 07:00:00 7.2 10 Nordeste 28 Este 0.2 -- -- 93
2019-12-02 06:00:00 7.4 12 Nordeste 26 Nordeste 0 -- -- 93
2019-12-02 05:00:00 7.3 10 Nordeste 20 Nordeste 0 -- -- 92
2019-12-02 04:00:00 7.3 10 Nordeste 19 Este 0 -- -- 95
2019-12-02 03:00:00 6.8 9 Nordeste 17 Este 0 -- -- 96
2019-12-02 02:00:00 6.9 5 Este 15 Este 0 -- -- 96
2019-12-02 01:00:00 6.8 6 Nordeste 15 Este 0.2 -- -- 96
2019-12-02 00:00:00 6.3 7 Este 13 Nordeste 0 -- -- 98
2019-12-01 23:00:00 6.2 6 Este 11 Este 0 -- -- 99
2019-12-01 22:00:00 6.5 4 Este 10 Este 0 -- -- 98
2019-12-01 21:00:00 7 3 Este 10 Sudeste 0 -- -- 98
2019-12-01 20:00:00 7.6 3 Sudeste 9 Sur 0 -- -- 96
2019-12-01 19:00:00 7.9 4 Este 9 Nordeste 0.4 -- -- 95
2019-12-01 18:00:00 8.2 3 Noroeste 15 Norte 1.2 -- -- 94
2019-12-01 17:00:00 9.3 11 Norte 20 Norte 0 -- -- 86
2019-12-01 16:00:00 10.4 3 Norte 19 Sudoeste 0 -- -- 83
2019-12-01 15:00:00 9.9 14 Sudoeste 30 Oeste 0.8 -- -- 100
2019-12-01 14:00:00 9.3 17 Oeste 28 Sudoeste 2.4 -- -- 100
2019-12-01 13:00:00 8.8 10 Sudoeste 29 Sudoeste 0.6 -- -- 100
2019-12-01 12:00:00 9 21 Sudoeste 32 Sudoeste 1.2 -- -- 100
2019-12-01 11:00:00 8.8 16 Sudoeste 33 Sudoeste 0.8 -- -- 100
2019-12-01 10:00:00 8.2 19 Sudoeste 31 Sudoeste 0.2 -- -- 100
2019-12-01 09:00:00 7.9 19 Sudoeste 32 Sudoeste 0.2 -- -- 100
2019-12-01 08:00:00 7.9 14 Sudoeste 22 Sudoeste 1.8 -- -- 100
2019-12-01 07:00:00 8.1 13 Sudoeste 22 Sudoeste 0.2 -- -- 100
2019-12-01 06:00:00 7.9 13 Sudoeste 28 Oeste 0 -- -- 100
2019-12-01 05:00:00 7.9 15 Oeste 30 Sudoeste 0 -- -- 100
2019-12-01 04:00:00 8 16 Oeste 26 Sudoeste 0 -- -- 100
2019-12-01 03:00:00 8.2 10 Oeste 15 Sudoeste 0 -- -- 100
2019-12-01 02:00:00 8 9 Oeste 26 Oeste 0 -- -- 100
2019-12-01 01:00:00 8.6 17 Oeste 24 Oeste 0 -- -- 99
2019-12-01 00:00:00 9.2 14 Oeste 26 Oeste 0.2 -- -- 99
2019-11-30 23:00:00 9.7 15 Sudoeste 25 Oeste 0 -- -- 98
2019-11-30 22:00:00 9.9 10 Oeste 19 Oeste 0.4 -- -- 96
2019-11-30 21:00:00 10.6 11 Oeste 37 Oeste 1.2 -- -- 97
2019-11-30 20:00:00 11.6 17 Sudoeste 28 Sudoeste 1 -- -- 97
2019-11-30 19:00:00 11.8 13 Sudoeste 27 Sudoeste 0.2 -- -- 94
2019-11-30 18:00:00 11.8 9 Sudoeste 25 Sudoeste 0.4 -- -- 95
2019-11-30 17:00:00 12.5 18 Sudoeste 28 Sudoeste 0 -- -- 88
2019-11-30 16:00:00 12.8 13 Sudoeste 24 Oeste 0 -- -- 85
2019-11-30 15:00:00 12.9 16 Sudoeste 27 Sudoeste 0 -- -- 84
2019-11-30 14:00:00 12.3 16 Sudoeste 26 Sudoeste 0 -- -- 96
2019-11-30 13:00:00 11.6 9 Sudoeste 17 Sudoeste 0 -- -- 100
2019-11-30 12:00:00 10.9 9 Oeste 16 Sudoeste 0 -- -- 100
2019-11-30 11:00:00 10.8 9 Sudoeste 17 Sudoeste 0 -- -- 100
2019-11-30 10:00:00 10.8 9 Oeste 13 Oeste 0 -- -- 100
2019-11-30 09:00:00 10.7 8 Sudoeste 13 Sudoeste 0 -- -- 100
2019-11-30 08:00:00 10.8 6 Sudoeste 10 Sudoeste 0 -- -- 99
2019-11-30 07:00:00 11.2 5 Sudoeste 12 Sudoeste 0 -- -- 99
2019-11-30 06:00:00 11.4 7 Oeste 13 Sudoeste 0 -- -- 99
2019-11-30 05:00:00 11.4 4 Oeste 9 Oeste 0 -- -- 98
2019-11-30 04:00:00 11.3 6 Oeste 10 Oeste 0 -- -- 98
2019-11-30 03:00:00 11.5 5 Sudoeste 8 Sur 0 -- -- 97
2019-11-30 02:00:00 12.2 4 Sudoeste 8 Sudoeste 0 -- -- 95
2019-11-30 01:00:00 12.5 5 Sudoeste 9 Sudoeste 0 -- -- 95
2019-11-30 00:00:00 12.6 4 Sudoeste 9 Oeste 0 -- -- 95
2019-11-29 23:00:00 12.7 4 Sudoeste 8 Sudoeste 0 -- -- 95
2019-11-29 22:00:00 12.8 4 Oeste 8 Sudoeste 0 -- -- 94
2019-11-29 21:00:00 13.1 2 Sudoeste 10 Sudoeste 0 -- -- 94
2019-11-29 20:00:00 13.2 6 Sudoeste 9 Sudoeste 0 -- -- 94
2019-11-29 19:00:00 13.4 5 Sudoeste 10 Sudoeste 0 -- -- 93
2019-11-29 18:00:00 13.7 7 Sudoeste 15 Sudoeste 0 -- -- 91
2019-11-29 17:00:00 14.2 9 Oeste 17 Oeste 0 -- -- 89
2019-11-29 16:00:00 14.2 11 Sudoeste 20 Oeste 0 -- -- 88
2019-11-29 15:00:00 14.3 10 Oeste 19 Oeste 0 -- -- 86
2019-11-29 14:00:00 14.6 11 Sudoeste 20 Oeste 0 -- -- 89
2019-11-29 13:00:00 13.4 13 Oeste 22 Oeste 0 -- -- 96
2019-11-29 12:00:00 12.5 15 Oeste 23 Sudoeste 0 -- -- 100
2019-11-29 11:00:00 11.9 12 Oeste 18 Oeste 0 -- -- 100
2019-11-29 10:00:00 11 12 Oeste 19 Oeste 0 -- -- 100
2019-11-29 09:00:00 10.8 12 Oeste 23 Oeste 0 -- -- 100
2019-11-29 08:00:00 11 14 Oeste 22 Oeste 0 -- -- 100
2019-11-29 07:00:00 11.1 15 Oeste 26 Oeste 0 -- -- 100
2019-11-29 06:00:00 11.2 17 Oeste 25 Oeste 0 -- -- 100
2019-11-29 05:00:00 11.3 12 Oeste 20 Oeste 0 -- -- 100
2019-11-29 04:00:00 11.4 11 Oeste 20 Oeste 0 -- -- 99
2019-11-29 03:00:00 11.5 10 Oeste 22 Oeste 0 -- -- 99
2019-11-29 02:00:00 11.4 12 Oeste 19 Oeste 0 -- -- 98
2019-11-29 01:00:00 11.5 12 Oeste 20 Oeste 0 -- -- 96
2019-11-29 00:00:00 11.6 12 Oeste 16 Oeste 0 -- -- 96
2019-11-28 23:00:00 11.5 8 Oeste 11 Oeste 0 -- -- 98
2019-11-28 22:00:00 11.4 7 Oeste 11 Oeste 0.2 -- -- 98
2019-11-28 21:00:00 11.4 4 Oeste 9 Oeste 0.2 -- -- 98
2019-11-28 20:00:00 11.3 5 Oeste 10 Oeste 0 -- -- 98
2019-11-28 19:00:00 11.1 4 Oeste 14 Oeste 0 -- -- 98
2019-11-28 18:00:00 11.6 12 Oeste 26 Oeste 0.6 -- -- 96
2019-11-28 17:00:00 12.5 10 Oeste 18 Oeste 0 -- -- 89
2019-11-28 16:00:00 12.2 9 Sudoeste 23 Oeste 0 -- -- 91
2019-11-28 15:00:00 12 12 Oeste 18 Oeste 0 -- -- 94
2019-11-28 14:00:00 11.7 12 Oeste 17 Oeste 0 -- -- 100
2019-11-28 13:00:00 10.4 10 Oeste 19 Sudoeste 0 -- -- 100
2019-11-28 12:00:00 10 13 Oeste 23 Oeste 0 -- -- 100
2019-11-28 11:00:00 9.9 13 Sudoeste 20 Sudoeste 0 -- -- 100
2019-11-28 10:00:00 9.2 10 Oeste 15 Oeste 0 -- -- 100
2019-11-28 09:00:00 8.6 8 Oeste 12 Oeste 0 -- -- 100
2019-11-28 08:00:00 8.5 8 Sudoeste 12 Oeste 0 -- -- 100
2019-11-28 07:00:00 8.4 5 Sudoeste 14 Oeste 0 -- -- 100
2019-11-28 06:00:00 8.4 10 Oeste 15 Sudoeste 0 -- -- 100
2019-11-28 05:00:00 8.4 5 Sudoeste 13 Sudoeste 0 -- -- 100
2019-11-28 04:00:00 8.4 9 Sudoeste 13 Sudoeste 0 -- -- 99
2019-11-28 03:00:00 8.4 5 Sudoeste 10 Sudoeste 0 -- -- 99
2019-11-28 02:00:00 8.5 6 Sudoeste 12 Sudoeste 0 -- -- 97
2019-11-28 01:00:00 9.2 8 Sudoeste 15 Sudoeste 0 -- -- 95
2019-11-28 00:00:00 10 8 Sudoeste 13 Oeste 0 -- -- 92
2019-11-27 23:00:00 10.4 6 Sudoeste 12 Oeste 0 -- -- 92
2019-11-27 22:00:00 10.8 10 Oeste 15 Sudoeste 0 -- -- 88
2019-11-27 21:00:00 10.9 8 Sudoeste 12 Sudoeste 0 -- -- 88
2019-11-27 20:00:00 11.2 6 Sudoeste 16 Sudoeste 0 -- -- 86
2019-11-27 19:00:00 11.4 7 Oeste 20 Sudoeste 0 -- -- 85
2019-11-27 18:00:00 11.9 14 Sudoeste 27 Oeste 0 -- -- 82
2019-11-27 17:00:00 12.6 20 Sudoeste 31 Oeste 0 -- -- 77
2019-11-27 16:00:00 13 20 Sudoeste 33 Sudoeste 0 -- -- 76
2019-11-27 15:00:00 12.8 20 Oeste 32 Sudoeste 0 -- -- 77
2019-11-27 14:00:00 12.6 17 Sudoeste 32 Sudoeste 0 -- -- 81
2019-11-27 06:00:00 -- -- -- -- -- -- -- -- --
2019-11-27 05:00:00 -- -- -- -- -- -- -- -- --
2019-11-27 04:00:00 -- -- -- -- -- -- -- -- --
2019-11-27 03:00:00 11.4 23 Oeste 40 Oeste 0.2 -- -- 100
2019-11-27 02:00:00 11.5 23 Oeste 39 Sudoeste 0 -- -- 100
2019-11-27 01:00:00 11.8 22 Oeste 40 Sudoeste 0 -- -- 100
2019-11-27 00:00:00 12 24 Oeste 36 Oeste 0 -- -- 100
2019-11-26 23:00:00 12.4 23 Oeste 41 Oeste 0 -- -- 100
2019-11-26 22:00:00 12.8 22 Oeste 39 Oeste 0 -- -- 100
2019-11-26 21:00:00 12.8 19 Oeste 31 Oeste 1.4 -- -- 100
2019-11-26 20:00:00 12.7 17 Sudoeste 32 Sudoeste 1.4 -- -- 100
2019-11-26 19:00:00 12.7 17 Sudoeste 34 Sudoeste 1.6 -- -- 99
2019-11-26 18:00:00 13.1 13 Oeste 21 Oeste 1.6 -- -- 99
2019-11-26 17:00:00 13.3 12 Oeste 22 Oeste 2 -- -- 98
2019-11-26 16:00:00 13.9 14 Sudoeste 29 Sudoeste 0.8 -- -- 98
2019-11-26 15:00:00 13.7 16 Sudoeste 25 Sudoeste 0.2 -- -- 100
2019-11-26 14:00:00 12.9 13 Sudoeste 23 Sudoeste 0 -- -- 100
2019-11-26 13:00:00 12.6 13 Sudoeste 22 Sudoeste 0.2 -- -- 100
2019-11-26 12:00:00 12.3 6 Sudoeste 12 Sudoeste 0.2 -- -- 100
2019-11-26 11:00:00 11.8 4 Sur 9 Sur 0.6 -- -- 100
2019-11-26 10:00:00 11.3 3 Sudoeste 8 Sur 0.4 -- -- 100
2019-11-26 09:00:00 11 4 Sudoeste 6 Sudoeste 0.2 -- -- 100
2019-11-26 08:00:00 10.8 3 Sudoeste 12 Sudoeste 0 -- -- 100
2019-11-26 07:00:00 10.9 10 Sudoeste 16 Sudoeste 0.4 -- -- 100
2019-11-26 06:00:00 11.1 7 Sudoeste 13 Sudoeste 0 -- -- 99
2019-11-26 05:00:00 11 8 Sudoeste 13 Sudoeste 0 -- -- 99
2019-11-26 04:00:00 11.1 9 Sudoeste 13 Sudoeste 0 -- -- 99
2019-11-26 03:00:00 11.3 8 Sudoeste 15 Sudoeste 0 -- -- 98
2019-11-26 02:00:00 11.3 10 Sudoeste 16 Sudoeste 0 -- -- 97
2019-11-26 01:00:00 11.8 7 Sudoeste 15 Oeste 0 -- -- 93
2019-11-26 00:00:00 11.9 10 Oeste 20 Oeste 0 -- -- 88
2019-11-25 23:00:00 12.5 11 Oeste 15 Oeste 0 -- -- 93
2019-11-25 22:00:00 13 9 Oeste 21 Oeste 0 -- -- 90
2019-11-25 21:00:00 13 10 Oeste 21 Sudoeste 0 -- -- 92
2019-11-25 20:00:00 12.9 12 Oeste 19 Sudoeste 0 -- -- 93
2019-11-25 19:00:00 13.3 13 Oeste 22 Oeste 0 -- -- 93
2019-11-25 18:00:00 13.9 14 Oeste 22 Sudoeste 0 -- -- 90
2019-11-25 17:00:00 14.7 9 Oeste 28 Oeste 0 -- -- 84
2019-11-25 16:00:00 14.7 15 Oeste 34 Oeste 0 -- -- 83
2019-11-25 15:00:00 15.4 18 Oeste 35 Oeste 0 -- -- 82
2019-11-25 14:00:00 14.2 18 Oeste 27 Oeste 0 -- -- 99
2019-11-25 13:00:00 12.9 13 Oeste 22 Oeste 0 -- -- 100
2019-11-25 12:00:00 12.5 12 Oeste 17 Oeste 0 -- -- 100
2019-11-25 11:00:00 12 10 Oeste 14 Oeste 0.4 -- -- 100
2019-11-25 10:00:00 11.2 0 Calma 4 Sudeste 0.4 -- -- 100
2019-11-25 09:00:00 10.5 0 Calma 5 Sudoeste 0.6 -- -- 100
2019-11-25 08:00:00 10.3 4 Sudoeste 8 Sudoeste 0.6 -- -- 100
2019-11-25 07:00:00 10 7 Sudoeste 10 Sudoeste 0.4 -- -- 100
2019-11-25 06:00:00 9.7 8 Oeste 17 Sudoeste 1.2 -- -- 100
2019-11-25 05:00:00 9.7 11 Sudoeste 17 Sudoeste 1.2 -- -- 99
2019-11-25 04:00:00 9.6 12 Sudoeste 17 Sudoeste 0.6 -- -- 99
2019-11-25 03:00:00 9.5 12 Sudoeste 20 Sudoeste 1 -- -- 99
2019-11-25 02:00:00 9.4 14 Sudoeste 20 Sudoeste 1.4 -- -- 99
2019-11-25 01:00:00 9.2 11 Sudoeste 17 Sudoeste 1.2 -- -- 97
2019-11-25 00:00:00 9.5 10 Sudoeste 20 Sudoeste 0.2 -- -- 95
2019-11-24 23:00:00 9.6 9 Sudoeste 15 Sudoeste 0 -- -- 93
2019-11-24 22:00:00 9.7 10 Sudoeste 17 Sudoeste 0 -- -- 92
2019-11-24 21:00:00 9.4 7 Oeste 13 Oeste 0 -- -- 94
2019-11-24 20:00:00 9.8 10 Oeste 17 Sudoeste 0 -- -- 89
2019-11-24 19:00:00 9.9 9 Sudoeste 19 Oeste 0 -- -- 87
2019-11-24 18:00:00 10.2 11 Oeste 23 Oeste 0 -- -- 83
2019-11-24 17:00:00 10.5 11 Oeste 26 Oeste 0 -- -- 80
2019-11-24 16:00:00 10.7 15 Oeste 32 Oeste 0 -- -- 82
2019-11-24 15:00:00 10.3 20 Oeste 31 Sudoeste 0 -- -- 83
2019-11-24 14:00:00 8.7 12 Sudoeste 20 Sudoeste 0 -- -- 95
2019-11-24 13:00:00 6.5 6 Sudoeste 14 Oeste 0 -- -- 99
2019-11-24 12:00:00 5.9 7 Oeste 14 Sudoeste 0 -- -- 98
2019-11-24 11:00:00 5.5 9 Sudoeste 14 Sudoeste 0 -- -- 97
2019-11-24 10:00:00 5.1 2 Sudoeste 10 Oeste 0 -- -- 96
2019-11-24 09:00:00 4.5 3 Sur 13 Norte 0 -- -- 93
2019-11-24 08:00:00 4.7 8 Norte 13 Noroeste 0 -- -- 96
2019-11-24 07:00:00 4.1 4 Norte 8 Noroeste 0 -- -- 97
2019-11-24 06:00:00 4.1 2 Sudeste 4 Sudeste 0 -- -- 95
2019-11-24 05:00:00 5.1 0 Calma 10 Noroeste 0 -- -- 91
2019-11-24 04:00:00 5.7 0 Calma 8 Oeste 0 -- -- 90
2019-11-24 03:00:00 5.8 0 Calma 8 Oeste 0 -- -- 90
2019-11-24 02:00:00 5.5 3 Sur 7 Sudeste 0 -- -- 91
2019-11-24 01:00:00 5.7 2 Sudeste 13 Sudoeste 0 -- -- 88
2019-11-24 00:00:00 7.3 5 Oeste 18 Oeste 0 -- -- 78
2019-11-23 23:00:00 8.3 11 Noroeste 31 Oeste 0 -- -- 74
2019-11-23 22:00:00 8.1 19 Oeste 30 Oeste 0 -- -- 77
2019-11-23 21:00:00 7.7 4 Noroeste 18 Oeste 0 -- -- 78
2019-11-23 20:00:00 7.9 3 Sur 22 Noroeste 0 -- -- 77
2019-11-23 19:00:00 9.6 12 Noroeste 29 Oeste 0 -- -- 65
2019-11-23 18:00:00 10.5 14 Noroeste 41 Noroeste 0 -- -- 60
2019-11-23 17:00:00 11.5 23 Oeste 39 Oeste 0 -- -- 61
2019-11-23 16:00:00 11.2 18 Oeste 36 Oeste 0 -- -- 61
2019-11-23 15:00:00 12 17 Oeste 39 Oeste 0 -- -- 59
2019-11-23 14:00:00 11.5 19 Noroeste 42 Oeste 0 -- -- 63
2019-11-23 13:00:00 11 19 Noroeste 39 Oeste 0 -- -- 65
2019-11-23 12:00:00 10.6 15 Oeste 29 Oeste 0 -- -- 66
2019-11-23 11:00:00 9 14 Oeste 39 Oeste 0 -- -- 71
2019-11-23 10:00:00 8.1 22 Oeste 36 Oeste 0 -- -- 79
2019-11-23 09:00:00 7.2 25 Oeste 44 Oeste 0 -- -- 81
2019-11-23 08:00:00 7 21 Oeste 34 Oeste 0.2 -- -- 87
2019-11-23 07:00:00 7.2 22 Oeste 33 Sudoeste 0 -- -- 87
2019-11-23 06:00:00 7.6 22 Oeste 37 Oeste 0 -- -- 85
2019-11-23 05:00:00 7.7 21 Oeste 36 Oeste 0 -- -- 80
2019-11-23 04:00:00 8.3 20 Oeste 46 Oeste 0 -- -- 80
2019-11-23 03:00:00 8.5 20 Oeste 44 Oeste 0 -- -- 86
2019-11-23 02:00:00 8.9 25 Oeste 46 Oeste 0 -- -- 89
2019-11-23 01:00:00 8.7 27 Oeste 43 Oeste 3.2 -- -- 96
2019-11-23 00:00:00 9.1 22 Oeste 43 Oeste 0.4 -- -- 98
2019-11-22 23:00:00 9.2 25 Oeste 39 Oeste 0 -- -- 93
2019-11-22 22:00:00 9.4 24 Oeste 42 Sudoeste 0 -- -- 94
2019-11-22 21:00:00 10.8 22 Oeste 37 Oeste 0 -- -- 83
2019-11-22 20:00:00 11.2 25 Oeste 42 Sudoeste 0 -- -- 87
2019-11-22 19:00:00 11.6 13 Oeste 36 Oeste 0 -- -- 80
2019-11-22 18:00:00 12.5 25 Oeste 44 Oeste 0 -- -- 71
2019-11-22 17:00:00 13.5 28 Oeste 45 Oeste 0 -- -- 71
2019-11-22 16:00:00 13.5 24 Sudoeste 48 Sudoeste 0 -- -- 100
2019-11-22 15:00:00 12.6 25 Sudoeste 44 Sudoeste 6.4 -- -- 100
2019-11-22 14:00:00 11.8 27 Sudoeste 41 Sudoeste 7 -- -- 100
2019-11-22 13:00:00 11.5 20 Sudoeste 40 Sudoeste 6.2 -- -- 100
2019-11-22 12:00:00 10.4 9 Sur 26 Sur 8.6 -- -- 100
2019-11-22 11:00:00 9.8 12 Sur 27 Sur 4.4 -- -- 100
2019-11-22 10:00:00 9.5 10 Sur 22 Sur 3.6 -- -- 100
2019-11-22 09:00:00 9.2 8 Sur 21 Sur 1.2 -- -- 100
2019-11-22 08:00:00 9.1 8 Sur 21 Sur 1.6 -- -- 100
2019-11-22 07:00:00 9.2 12 Sur 22 Sur 1 -- -- 100
2019-11-22 06:00:00 9.2 8 Sur 18 Sudoeste 0.4 -- -- 100
2019-11-22 05:00:00 9 11 Sudoeste 20 Sudoeste 0.4 -- -- 100
2019-11-22 04:00:00 9 11 Sudoeste 17 Sudoeste 0 -- -- 99
2019-11-22 03:00:00 9.1 10 Sudoeste 15 Sudoeste 0 -- -- 99
2019-11-22 02:00:00 9.1 7 Sur 18 Sudoeste 0.6 -- -- 99
2019-11-22 01:00:00 8.5 3 Sudeste 7 Sudeste 0 -- -- 99
2019-11-22 00:00:00 8.4 3 Sudeste 6 Sudeste 0 -- -- 98
2019-11-21 23:00:00 8.6 2 Sudeste 10 Sur 0 -- -- 97
2019-11-21 22:00:00 9.1 3 Sur 8 Sur 0 -- -- 98
2019-11-21 21:00:00 9 0 Calma 4 Sudeste 0 -- -- 97
2019-11-21 20:00:00 8.9 2 Sudeste 3 Sudeste 0 -- -- 96
2019-11-21 19:00:00 9.1 0 Calma 3 Sudoeste 0 -- -- 95
2019-11-21 18:00:00 9.8 4 Sudoeste 10 Sudoeste 0 -- -- 93
2019-11-21 17:00:00 10.2 5 Oeste 12 Sudoeste 0 -- -- 93
2019-11-21 16:00:00 10 8 Oeste 16 Sudoeste 0 -- -- 96
2019-11-21 15:00:00 9.5 11 Sudoeste 17 Sudoeste 0.2 -- -- 97
2019-11-21 14:00:00 9.3 10 Sudoeste 15 Sudoeste 0 -- -- 95
2019-11-21 13:00:00 9.3 9 Sudoeste 12 Sudoeste 0 -- -- 96
2019-11-21 12:00:00 8.6 6 Oeste 15 Sudoeste 0 -- -- 100
2019-11-21 11:00:00 8.2 8 Sudoeste 15 Sudoeste 0.6 -- -- 100
2019-11-21 10:00:00 8.1 9 Sudoeste 15 Sudoeste 1.2 -- -- 100
2019-11-21 09:00:00 7.9 4 Sudoeste 9 Sudoeste 2.8 -- -- 100
2019-11-21 08:00:00 7.8 5 Oeste 10 Sudeste 3 -- -- 100
2019-11-21 07:00:00 7.7 3 Sur 7 Sur 0.2 -- -- 100
2019-11-21 06:00:00 7.6 3 Sudoeste 9 Sudoeste 0 -- -- 100
2019-11-21 05:00:00 7.4 4 Sudoeste 8 Oeste 0 -- -- 100
2019-11-21 04:00:00 7.3 4 Oeste 13 Sudoeste 1.6 -- -- 100
2019-11-21 03:00:00 7.3 7 Sudoeste 13 Sudoeste 0.2 -- -- 99
2019-11-21 02:00:00 7.7 10 Sudoeste 17 Sudoeste 0 -- -- 99
2019-11-21 01:00:00 7.9 12 Sudoeste 19 Sudoeste 0 -- -- 99
2019-11-21 00:00:00 7.7 5 Sur 10 Sudoeste 0.4 -- -- 99
2019-11-20 23:00:00 7.4 2 Sur 5 Sur 0 -- -- 99
2019-11-20 22:00:00 7.2 0 Calma 3 Sudeste 0 -- -- 99
2019-11-20 21:00:00 6.9 0 Calma 4 Este 0 -- -- 98
2019-11-20 20:00:00 6.6 3 Este 5 Este 0 -- -- 98
2019-11-20 19:00:00 6.4 0 Calma 6 Noroeste 0.2 -- -- 98
2019-11-20 18:00:00 6.5 3 Noroeste 12 Sudeste 1.2 -- -- 97
2019-11-20 17:00:00 6.6 6 Sudeste 13 Este 0.4 -- -- 96
2019-11-20 16:00:00 6.6 2 Este 6 Sudeste 0.6 -- -- 95
2019-11-20 15:00:00 6.8 3 Sudeste 10 Este 0.8 -- -- 94
2019-11-20 14:00:00 6.9 4 Sur 16 Sur 0 -- -- 93
2019-11-20 13:00:00 7 4 Sur 12 Sur 0.4 -- -- 94
2019-11-20 12:00:00 6.6 4 Sur 12 Sudeste 0.4 -- -- 95
2019-11-20 11:00:00 6.1 4 Sudeste 11 Sudeste 1.6 -- -- 95
2019-11-20 10:00:00 5.7 2 Este 6 Sudeste 1 -- -- 93
2019-11-20 09:00:00 5.3 2 Este 8 Este 0 -- -- 92
2019-11-20 08:00:00 4.8 3 Este 8 Este 0 -- -- 92
2019-11-20 07:00:00 4.5 3 Este 6 Sudeste 0 -- -- 94
2019-11-20 06:00:00 4.4 2 Este 6 Este 0 -- -- 92
2019-11-20 05:00:00 4.8 3 Este 8 Sudeste 0 -- -- 91
2019-11-20 04:00:00 5.6 3 Este 9 Este 0 -- -- 89
2019-11-20 03:00:00 5.4 3 Este 6 Este 0 -- -- 89
2019-11-20 02:00:00 5.6 3 Este 5 Este 0 -- -- 85
2019-11-20 01:00:00 5.8 2 Este 5 Nordeste 0 -- -- 88
2019-11-20 00:00:00 5.7 3 Este 4 Este 0 -- -- 86
2019-11-19 23:00:00 6.3 2 Este 4 Sudeste 0 -- -- 85
2019-11-19 22:00:00 6.1 0 Calma 4 Nordeste 0 -- -- 86
2019-11-19 21:00:00 6.4 0 Calma 2 Nordeste 0 -- -- 87
2019-11-19 20:00:00 6.1 0 Calma -- -- 0 -- -- 91
2019-11-19 19:00:00 6.5 0 Calma 2 Sur 0 -- -- 87
2019-11-19 18:00:00 8 0 Calma 7 Sudoeste 0 -- -- 81
2019-11-19 17:00:00 8.8 4 Sudoeste 11 Sudoeste 0 -- -- 72
2019-11-19 16:00:00 8.8 6 Sudoeste 14 Sudoeste 0 -- -- 75
2019-11-19 15:00:00 9 10 Sudoeste 15 Sudoeste 0 -- -- 74
2019-11-19 14:00:00 9.1 7 Oeste 11 Oeste 0 -- -- 72
2019-11-19 13:00:00 9.2 7 Sudoeste 11 Sudoeste 0 -- -- 72
2019-11-19 12:00:00 8.9 2 Oeste 6 Sur 0 -- -- 74
2019-11-19 11:00:00 7.5 3 Sudeste 7 Este 0 -- -- 74
2019-11-19 10:00:00 5.4 2 Este 8 Este 0 -- -- 79
2019-11-19 09:00:00 4.2 4 Este 9 Nordeste 0 -- -- 81
2019-11-19 08:00:00 4 2 Este 9 Nordeste 0 -- -- 82
2019-11-19 07:00:00 4.1 0 Calma 4 Este 0 -- -- 87
2019-11-19 06:00:00 4.4 3 Este 7 Este 0 -- -- 84
2019-11-19 05:00:00 4.5 4 Este 9 Este 0 -- -- 83
2019-11-19 04:00:00 4.3 3 Este 8 Este 0 -- -- 86
2019-11-19 03:00:00 5 4 Este 9 Sudeste 0 -- -- 83
2019-11-19 02:00:00 5.2 3 Este 10 Nordeste 0 -- -- 80
2019-11-19 01:00:00 6 5 Este 14 Nordeste 0 -- -- 79
2019-11-19 00:00:00 6.2 8 Este 12 Nordeste 0 -- -- 81
2019-11-18 23:00:00 5.3 0 Calma 8 Este 0 -- -- 79
2019-11-18 22:00:00 5.4 3 Nordeste 5 Nordeste 0 -- -- 83
2019-11-18 21:00:00 6.5 4 Nordeste 6 Norte 0 -- -- 78
2019-11-18 20:00:00 6.8 4 Norte 5 Norte 0 -- -- 78
2019-11-18 19:00:00 8.3 2 Noroeste 11 Sudoeste 0 -- -- 73
2019-11-18 18:00:00 10.3 9 Sudoeste 21 Sudoeste 0 -- -- 65
2019-11-18 17:00:00 11.6 14 Sudoeste 22 Oeste 0 -- -- 60
2019-11-18 16:00:00 12 12 Oeste 22 Oeste 0 -- -- 63
2019-11-18 15:00:00 11.5 13 Sudoeste 22 Sudoeste 0 -- -- 66
2019-11-18 14:00:00 10.7 11 Sudoeste 18 Sudoeste 0 -- -- 69
2019-11-18 13:00:00 9.8 13 Sudoeste 18 Sudoeste 0 -- -- 69
2019-11-18 12:00:00 8.9 11 Sudoeste 16 Oeste 0 -- -- 83
2019-11-18 11:00:00 8.7 4 Noroeste 10 Oeste 0 -- -- 76
2019-11-18 10:00:00 6.7 0 Calma 14 Norte 0 -- -- 81
2019-11-18 09:00:00 4.5 6 Nordeste 13 Noroeste 0 -- -- 87
2019-11-18 08:00:00 3.1 7 Noroeste 13 Noroeste 0 -- -- 93
2019-11-18 07:00:00 4.2 4 Norte 13 Norte 0 -- -- 88
2019-11-18 06:00:00 3.5 3 Norte 7 Norte 0 -- -- 91
2019-11-18 05:00:00 4.8 4 Norte 18 Noroeste 0 -- -- 87
2019-11-18 04:00:00 5.4 8 Norte 16 Oeste 0 -- -- 87
2019-11-18 03:00:00 5.8 9 Noroeste 20 Oeste 0 -- -- 87
2019-11-18 02:00:00 6.8 5 Noroeste 26 Noroeste 0 -- -- 84
2019-11-18 01:00:00 7.3 11 Norte 30 Oeste 0 -- -- 88
2019-11-18 00:00:00 8.1 9 Noroeste 25 Norte 0 -- -- 92
2019-11-17 23:00:00 8.6 8 Noroeste 18 Noroeste 0.2 -- -- 99
2019-11-17 22:00:00 8.3 3 Noroeste 19 Oeste 2 -- -- 100
2019-11-17 21:00:00 8.7 12 Oeste 20 Oeste 4.4 -- -- 99
2019-11-17 20:00:00 7.6 4 Noroeste 8 Noroeste 4.2 -- -- 99
2019-11-17 19:00:00 7.4 2 Oeste 6 Noroeste 3.4 -- -- 99
2019-11-17 18:00:00 7.3 4 Sudoeste 6 Sudoeste 2 -- -- 99
2019-11-17 17:00:00 7.2 5 Sudoeste 8 Sudoeste 0 -- -- 99
2019-11-17 16:00:00 7 5 Sudoeste 9 Oeste 0 -- -- 99
2019-11-17 15:00:00 6.9 4 Oeste 13 Sudoeste 0 -- -- 98
2019-11-17 14:00:00 6.5 2 Sur 7 Norte 0.2 -- -- 99
2019-11-17 13:00:00 5.7 0 Calma 8 Norte 0 -- -- 99
2019-11-17 12:00:00 4.9 5 Norte 10 Sudoeste 0.8 -- -- 98
2019-11-17 11:00:00 4.8 4 Sudoeste 8 Sudoeste 0.2 -- -- 98
2019-11-17 10:00:00 4.1 7 Sudoeste 10 Sudoeste 0.2 -- -- 97
2019-11-17 09:00:00 3.8 2 Sur 5 Sudoeste 0 -- -- 96
2019-11-17 08:00:00 3.4 3 Sudoeste 11 Oeste 0 -- -- 94
2019-11-17 07:00:00 3.6 3 Oeste 13 Oeste 0 -- -- 90
2019-11-17 06:00:00 3.8 5 Oeste 9 Oeste 0 -- -- 86
2019-11-17 05:00:00 2.2 4 Oeste 9 Oeste 0 -- -- 90
2019-11-17 04:00:00 2.4 6 Oeste 12 Oeste 0 -- -- 88
2019-11-17 03:00:00 2 2 Sudoeste 4 Oeste 0 -- -- 87
2019-11-17 02:00:00 3.1 4 Oeste 8 Sudoeste 0 -- -- 80
2019-11-17 01:00:00 3.2 4 Sudoeste 8 Sudoeste 0 -- -- 79
2019-11-17 00:00:00 4.6 3 Sudoeste 14 Sudoeste 0 -- -- 74
2019-11-16 23:00:00 5.2 6 Sur 15 Sudoeste 0 -- -- 72
2019-11-16 22:00:00 5.6 8 Sudoeste 15 Sudoeste 0 -- -- 70
2019-11-16 21:00:00 5.9 2 Sur 14 Oeste 0 -- -- 66
2019-11-16 20:00:00 6.8 8 Oeste 17 Oeste 0 -- -- 61
2019-11-16 19:00:00 7.7 8 Oeste 15 Oeste 0 -- -- 56
2019-11-16 18:00:00 8.9 9 Oeste 21 Oeste 0 -- -- 54
2019-11-16 17:00:00 10.4 12 Oeste 23 Oeste 0 -- -- 49
2019-11-16 16:00:00 10.7 15 Oeste 31 Sudoeste 0 -- -- 49
2019-11-16 15:00:00 10.3 19 Oeste 32 Oeste 0 -- -- 50
2019-11-16 14:00:00 9.4 17 Sudoeste 26 Oeste 0 -- -- 57
2019-11-16 13:00:00 8.2 14 Oeste 21 Sudoeste 0 -- -- 65
2019-11-16 12:00:00 6.9 4 Oeste 13 Oeste 0 -- -- 67
2019-11-16 11:00:00 5.9 5 Oeste 8 Noroeste 0 -- -- 71
2019-11-16 10:00:00 3.4 4 Noroeste 8 Noroeste 0 -- -- 77
2019-11-16 09:00:00 0.4 4 Norte 8 Noroeste 0 -- -- 90
2019-11-16 08:00:00 0.4 5 Sudeste 8 Sudeste 0 -- -- 86
2019-11-16 07:00:00 -0.7 2 Norte 5 Noroeste 0 -- -- 89
2019-11-16 06:00:00 0.2 3 Nordeste 5 Nordeste 0 -- -- 86
2019-11-16 05:00:00 1.4 3 Este 9 Norte 0 -- -- 82
2019-11-16 04:00:00 2.9 4 Norte 15 Norte 0 -- -- 75
2019-11-16 03:00:00 2.5 3 Noroeste 18 Noroeste 0 -- -- 77
2019-11-16 02:00:00 3.3 8 Norte 14 Norte 0 -- -- 73
2019-11-16 01:00:00 4.3 5 Norte 15 Noroeste 0 -- -- 67
2019-11-16 00:00:00 4.7 9 Norte 16 Norte 0 -- -- 66
2019-11-15 23:00:00 3.8 5 Noroeste 13 Noroeste 0 -- -- 69
2019-11-15 22:00:00 4.7 7 Noroeste 17 Oeste 0 -- -- 65
2019-11-15 21:00:00 5.1 4 Noroeste 14 Noroeste 0 -- -- 63
2019-11-15 20:00:00 5.9 3 Noroeste 18 Noroeste 0 -- -- 59
2019-11-15 19:00:00 6.6 3 Noroeste 17 Oeste 0 -- -- 56
2019-11-15 18:00:00 8 8 Noroeste 20 Oeste 0 -- -- 56
2019-11-15 17:00:00 8.7 12 Oeste 24 Oeste 0 -- -- 56
2019-11-15 16:00:00 8.9 14 Noroeste 32 Noroeste 0 -- -- 58
2019-11-15 15:00:00 8.9 13 Noroeste 24 Norte 0 -- -- 59
2019-11-15 14:00:00 8.7 15 Noroeste 27 Norte 0 -- -- 60
2019-11-15 13:00:00 8.5 11 Oeste 19 Oeste 0 -- -- 59
2019-11-15 12:00:00 7.3 10 Noroeste 22 Noroeste 0 -- -- 65
2019-11-15 11:00:00 5.9 9 Noroeste 20 Noroeste 0 -- -- 68
2019-11-15 10:00:00 4.6 13 Noroeste 24 Noroeste 0 -- -- 71
2019-11-15 09:00:00 3.8 11 Oeste 29 Noroeste 0 -- -- 73
2019-11-15 08:00:00 3.3 10 Oeste 32 Oeste 0 -- -- 74
2019-11-15 07:00:00 3.5 13 Oeste 28 Oeste 0 -- -- 75
2019-11-15 06:00:00 4 12 Oeste 32 Oeste 0 -- -- 70
2019-11-15 05:00:00 4.2 13 Oeste 26 Noroeste 0 -- -- 71
2019-11-15 04:00:00 4.7 13 Oeste 26 Oeste 0 -- -- 71
2019-11-15 03:00:00 5.3 12 Oeste 28 Oeste 0 -- -- 70
2019-11-15 02:00:00 5.4 13 Noroeste 29 Oeste 0 -- -- 69
2019-11-15 01:00:00 6 17 Oeste 32 Oeste 0 -- -- 71
2019-11-15 00:00:00 6.5 15 Oeste 37 Oeste 0 -- -- 71